Time;durP1;ratioP1;P1;durP2;ratioP2;P2;SDS_P1;SDS_P2;PMS_P1;PMS_P2;Temp;Humidity;BMP_temperature;BMP_pressure;BME280_temperature;BME280_humidity;BME280_pressure;Samples;Min_cycle;Max_cycle;Signal;HPM_P1;HPM_P2
2020/12/22 00:00:18;;;;;;;41.13;27.17;;;12.10;99.90;;;;;;5035533;28;20049;-64
2020/12/22 00:02:48;;;;;;;51.08;30.15;;;12.10;99.90;;;;;;5036207;28;20080;-63
2020/12/22 00:05:16;;;;;;;49.00;29.70;;;12.10;99.90;;;;;;5053371;28;20488;-63
2020/12/22 00:07:43;;;;;;;53.03;30.55;;;12.10;99.90;;;;;;5035643;28;20052;-63
2020/12/22 00:10:11;;;;;;;57.40;32.60;;;12.00;99.90;;;;;;5035451;28;20175;-64
2020/12/22 00:12:39;;;;;;;52.75;31.10;;;12.00;99.90;;;;;;5035457;28;20129;-64
2020/12/22 00:15:10;;;;;;;54.42;31.33;;;12.00;99.90;;;;;;5053405;28;20053;-63
2020/12/22 00:17:42;;;;;;;52.60;30.95;;;12.00;99.90;;;;;;5053282;28;20123;-64
2020/12/22 00:20:12;;;;;;;55.80;34.63;;;12.00;99.90;;;;;;5035027;28;20048;-63
2020/12/22 00:22:39;;;;;;;56.15;35.05;;;11.90;99.90;;;;;;5053031;28;20053;-63
2020/12/22 00:25:07;;;;;;;49.80;31.60;;;11.90;99.90;;;;;;5035490;28;20041;-63
2020/12/22 00:27:36;;;;;;;56.80;33.17;;;11.90;99.90;;;;;;5052806;28;20049;-63
2020/12/22 00:30:05;;;;;;;65.22;37.15;;;11.90;99.90;;;;;;5052640;28;20041;-64
2020/12/22 00:32:34;;;;;;;57.88;36.05;;;11.90;99.90;;;;;;5052831;28;20059;-64
2020/12/22 00:35:01;;;;;;;63.28;37.53;;;11.90;99.90;;;;;;5045882;28;20048;-63
2020/12/22 00:37:30;;;;;;;75.95;40.50;;;11.90;99.90;;;;;;5052303;28;20044;-64
2020/12/22 00:39:57;;;;;;;64.90;38.63;;;11.90;99.90;;;;;;5059765;28;20155;-63
2020/12/22 00:42:28;;;;;;;63.95;39.10;;;11.90;99.90;;;;;;5051795;28;20577;-64
2020/12/22 00:44:58;;;;;;;71.38;41.42;;;11.90;99.90;;;;;;5051504;28;20051;-63
2020/12/22 00:47:26;;;;;;;79.47;42.72;;;11.90;99.90;;;;;;5068118;28;20045;-63
2020/12/22 00:49:53;;;;;;;75.20;43.40;;;11.90;99.90;;;;;;5018704;28;20064;-62
2020/12/22 00:52:21;;;;;;;71.78;39.80;;;11.90;99.90;;;;;;5058322;28;20090;-63
2020/12/22 00:54:49;;;;;;;61.63;36.53;;;11.90;99.90;;;;;;5044890;28;20128;-63
2020/12/22 00:57:16;;;;;;;59.20;36.00;;;11.90;99.90;;;;;;5052977;28;20041;-63
2020/12/22 01:00:12;;;;;;;56.92;34.72;;;11.90;99.90;;;;;;5046717;28;20040;-61
2020/12/22 01:02:40;;;;;;;53.58;32.53;;;11.90;99.90;;;;;;5068554;28;20048;-62
2020/12/22 01:05:07;;;;;;;47.38;30.90;;;11.90;99.90;;;;;;5044006;28;20047;-62
2020/12/22 01:07:35;;;;;;;50.40;30.85;;;11.90;99.90;;;;;;5052730;28;20427;-63
2020/12/22 01:10:03;;;;;;;45.35;29.10;;;12.00;99.90;;;;;;5054762;28;20049;-64
2020/12/22 01:12:31;;;;;;;47.40;30.30;;;12.00;99.90;;;;;;5072250;28;20072;-64
2020/12/22 01:14:59;;;;;;;44.42;28.02;;;12.10;99.90;;;;;;5070677;28;20051;-64
2020/12/22 01:17:26;;;;;;;41.25;25.88;;;12.10;99.90;;;;;;5048143;28;20053;-63
2020/12/22 01:19:54;;;;;;;45.45;29.92;;;12.20;99.90;;;;;;5066138;28;20045;-63
2020/12/22 01:22:21;;;;;;;40.90;26.13;;;12.20;99.90;;;;;;5052907;28;20049;-63
2020/12/22 01:24:49;;;;;;;36.55;25.23;;;12.30;99.90;;;;;;5060905;28;20056;-63
2020/12/22 01:27:16;;;;;;;42.85;25.70;;;12.20;99.90;;;;;;5072161;28;20068;-63
2020/12/22 01:29:44;;;;;;;41.83;24.67;;;12.30;99.90;;;;;;5071754;28;20064;-64
2020/12/22 01:32:12;;;;;;;40.78;25.55;;;12.30;99.90;;;;;;5043182;28;20045;-64
2020/12/22 01:34:39;;;;;;;49.28;25.15;;;12.30;99.90;;;;;;5052708;28;20069;-63
2020/12/22 01:37:13;;;;;;;41.88;26.98;;;12.20;99.90;;;;;;5034841;28;20338;-64
2020/12/22 01:39:42;;;;;;;41.25;26.17;;;12.30;99.90;;;;;;5049782;28;20045;-63
2020/12/22 01:42:10;;;;;;;43.80;24.50;;;12.30;99.90;;;;;;5053916;28;20056;-64
2020/12/22 01:44:37;;;;;;;43.45;25.17;;;12.40;99.90;;;;;;5064492;28;20439;-63
2020/12/22 01:47:05;;;;;;;45.33;27.38;;;12.30;99.90;;;;;;5034991;28;20484;-64
2020/12/22 01:49:32;;;;;;;35.50;23.17;;;12.40;99.90;;;;;;5038289;28;20072;-64
2020/12/22 01:52:00;;;;;;;39.40;25.52;;;12.30;99.90;;;;;;5055734;28;20057;-63
2020/12/22 01:54:27;;;;;;;43.15;27.80;;;12.40;99.90;;;;;;5038194;28;20423;-63
2020/12/22 01:56:55;;;;;;;41.45;25.45;;;12.40;99.90;;;;;;5038105;28;20438;-63
2020/12/22 01:59:23;;;;;;;42.97;26.73;;;12.30;99.90;;;;;;5054223;28;20052;-64
2020/12/22 02:01:53;;;;;;;42.78;26.40;;;12.30;99.90;;;;;;5056314;28;20384;-63
2020/12/22 02:04:21;;;;;;;49.47;26.67;;;12.20;99.90;;;;;;5038125;28;20094;-63
2020/12/22 02:06:49;;;;;;;43.10;24.13;;;12.30;99.90;;;;;;5037979;28;20048;-63
2020/12/22 02:09:16;;;;;;;41.10;25.50;;;12.20;99.90;;;;;;5037456;28;20749;-64
2020/12/22 02:11:44;;;;;;;41.10;26.42;;;12.20;99.90;;;;;;5055690;28;20049;-63
2020/12/22 02:14:12;;;;;;;44.55;24.10;;;12.20;99.90;;;;;;5037688;28;20053;-63
2020/12/22 02:16:40;;;;;;;42.78;23.15;;;12.20;99.90;;;;;;5021713;28;20451;-63
2020/12/22 02:19:20;;;;;;;37.13;22.92;;;12.20;99.90;;;;;;5037352;28;20067;-63
2020/12/22 02:21:48;;;;;;;34.25;21.17;;;12.20;99.90;;;;;;5055591;28;20475;-63
2020/12/22 02:24:15;;;;;;;32.33;20.92;;;12.20;99.90;;;;;;5052424;28;20518;-63
2020/12/22 02:26:43;;;;;;;34.63;21.77;;;12.20;99.90;;;;;;5054868;28;20447;-64
2020/12/22 02:29:10;;;;;;;36.17;21.00;;;12.20;99.90;;;;;;5053892;28;20049;-63
2020/12/22 02:31:38;;;;;;;39.15;23.27;;;12.10;99.90;;;;;;5053868;28;20175;-64
2020/12/22 02:34:06;;;;;;;31.80;20.70;;;12.10;99.90;;;;;;5055096;28;20053;-64
2020/12/22 02:36:33;;;;;;;33.13;20.20;;;12.10;99.90;;;;;;5055286;28;20057;-64
2020/12/22 02:39:02;;;;;;;39.75;24.08;;;12.10;99.90;;;;;;5054800;28;20455;-63
2020/12/22 02:41:30;;;;;;;34.88;22.95;;;12.10;99.90;;;;;;5054842;28;20106;-63
2020/12/22 02:43:57;;;;;;;40.00;23.33;;;12.10;99.90;;;;;;5055083;28;20455;-63
2020/12/22 02:46:25;;;;;;;35.13;23.58;;;12.10;99.90;;;;;;5054871;28;20579;-62
2020/12/22 02:48:52;;;;;;;41.17;23.77;;;12.10;99.90;;;;;;5054576;28;20083;-62
2020/12/22 02:51:20;;;;;;;39.72;25.27;;;12.20;99.90;;;;;;5053361;28;20525;-63
2020/12/22 02:53:47;;;;;;;39.67;24.52;;;12.10;99.90;;;;;;5046489;28;20045;-64
2020/12/22 02:56:15;;;;;;;35.13;22.50;;;12.10;99.90;;;;;;5054625;28;20052;-62
2020/12/22 02:58:42;;;;;;;36.67;23.90;;;12.10;99.90;;;;;;5053112;28;20055;-62
2020/12/22 03:01:10;;;;;;;36.25;22.67;;;12.00;99.90;;;;;;5054539;28;20407;-63
2020/12/22 03:03:37;;;;;;;38.75;23.85;;;12.00;99.90;;;;;;5053251;28;20098;-63
2020/12/22 03:06:05;;;;;;;35.95;23.73;;;12.00;99.90;;;;;;5069997;28;20041;-63
2020/12/22 03:08:32;;;;;;;34.60;20.38;;;12.10;99.90;;;;;;5054528;28;20139;-63
2020/12/22 03:11:01;;;;;;;39.42;23.10;;;12.10;99.90;;;;;;5054596;28;20045;-63
2020/12/22 03:13:30;;;;;;;34.88;23.65;;;12.10;99.90;;;;;;5053159;28;20048;-62
2020/12/22 03:15:58;;;;;;;36.50;22.70;;;12.10;99.90;;;;;;5054378;28;20392;-63
2020/12/22 03:18:26;;;;;;;32.55;21.63;;;12.10;99.90;;;;;;5036564;28;20045;-62
2020/12/22 03:20:53;;;;;;;36.10;21.95;;;12.10;99.90;;;;;;5054086;28;20052;-63
2020/12/22 03:23:20;;;;;;;33.83;21.60;;;12.10;99.90;;;;;;5054294;28;20068;-64
2020/12/22 03:25:48;;;;;;;33.00;20.65;;;12.10;99.90;;;;;;5061746;28;20048;-63
2020/12/22 03:28:15;;;;;;;33.95;21.45;;;12.20;99.90;;;;;;5054271;28;20141;-63
2020/12/22 03:30:43;;;;;;;36.67;20.42;;;12.20;99.90;;;;;;5035769;28;20056;-63
2020/12/22 03:33:11;;;;;;;38.08;21.48;;;12.20;99.90;;;;;;5036481;28;20065;-63
2020/12/22 03:35:38;;;;;;;29.52;19.20;;;12.20;99.90;;;;;;5054009;28;20056;-63
2020/12/22 03:38:06;;;;;;;34.42;22.80;;;12.20;99.90;;;;;;5053935;28;20041;-63
2020/12/22 03:40:33;;;;;;;34.03;23.10;;;12.30;99.90;;;;;;5053425;28;20515;-64
2020/12/22 03:43:01;;;;;;;39.17;21.98;;;12.30;99.90;;;;;;5052927;28;20045;-63
2020/12/22 03:45:28;;;;;;;36.03;21.23;;;12.30;99.90;;;;;;5053719;28;20041;-63
2020/12/22 03:47:56;;;;;;;30.77;21.95;;;12.30;99.90;;;;;;5046203;28;20045;-63
2020/12/22 03:50:25;;;;;;;37.33;22.55;;;12.30;99.90;;;;;;5058736;28;20396;-63
2020/12/22 03:52:52;;;;;;;34.63;23.05;;;12.30;99.90;;;;;;5054457;28;20044;-63
2020/12/22 03:55:20;;;;;;;38.00;23.08;;;12.30;99.90;;;;;;5042381;28;20055;-63
2020/12/22 03:57:47;;;;;;;38.88;23.25;;;12.30;99.90;;;;;;5055866;28;20053;-63
2020/12/22 04:00:15;;;;;;;34.42;21.77;;;12.30;99.90;;;;;;5071624;28;20049;-63
2020/12/22 04:02:42;;;;;;;41.92;26.45;;;12.30;99.90;;;;;;5073048;28;20052;-63
2020/12/22 04:05:10;;;;;;;36.83;24.02;;;12.30;99.90;;;;;;5068797;28;20045;-63
2020/12/22 04:07:38;;;;;;;32.67;22.13;;;12.30;99.90;;;;;;5052540;28;20053;-63
2020/12/22 04:10:07;;;;;;;33.40;19.67;;;12.30;99.90;;;;;;5053246;28;20043;-64
2020/12/22 04:12:36;;;;;;;28.52;20.48;;;12.40;99.90;;;;;;5060218;28;20106;-63
2020/12/22 04:15:05;;;;;;;29.58;20.00;;;12.40;99.90;;;;;;5055542;28;20056;-63
2020/12/22 04:17:33;;;;;;;32.80;19.35;;;12.30;99.90;;;;;;5073238;28;20053;-64
2020/12/22 04:20:01;;;;;;;29.90;18.15;;;12.30;99.90;;;;;;5061593;28;20463;-63
2020/12/22 04:22:28;;;;;;;30.73;21.27;;;12.30;99.90;;;;;;5053367;28;20075;-64
2020/12/22 04:24:56;;;;;;;35.25;21.33;;;12.40;99.90;;;;;;5035636;28;20040;-62
2020/12/22 04:27:23;;;;;;;33.17;21.52;;;12.40;99.90;;;;;;5037434;28;20045;-63
2020/12/22 04:29:51;;;;;;;30.15;20.73;;;12.40;99.90;;;;;;5052958;28;20059;-63
2020/12/22 04:32:18;;;;;;;29.67;20.50;;;12.40;99.90;;;;;;5055072;28;20051;-64
2020/12/22 04:34:46;;;;;;;34.85;19.55;;;12.40;99.90;;;;;;5053062;28;20084;-63
2020/12/22 04:37:14;;;;;;;34.45;21.02;;;12.40;99.90;;;;;;5053934;28;20049;-63
2020/12/22 04:39:42;;;;;;;29.73;20.58;;;12.40;99.90;;;;;;5043178;28;20044;-64
2020/12/22 04:42:12;;;;;;;28.50;19.10;;;12.40;99.90;;;;;;5045348;28;20056;-63
2020/12/22 04:44:40;;;;;;;31.40;20.55;;;12.40;99.90;;;;;;5053375;28;20049;-64
2020/12/22 04:47:10;;;;;;;30.20;21.08;;;12.50;99.90;;;;;;5063876;28;20049;-63
2020/12/22 04:49:42;;;;;;;31.52;19.75;;;12.50;99.90;;;;;;5071478;28;20052;-63
2020/12/22 04:52:10;;;;;;;34.60;21.48;;;12.40;99.90;;;;;;5060575;28;20110;-63
2020/12/22 04:54:38;;;;;;;32.40;20.77;;;12.40;99.90;;;;;;5039755;28;20052;-64
2020/12/22 04:57:06;;;;;;;29.92;20.95;;;12.40;99.90;;;;;;5034247;28;20102;-63
2020/12/22 04:59:37;;;;;;;29.73;19.30;;;12.30;99.90;;;;;;5051813;28;20060;-63
2020/12/22 05:02:07;;;;;;;30.67;20.85;;;12.20;99.90;;;;;;5051794;28;20126;-62
2020/12/22 05:04:36;;;;;;;32.28;21.65;;;12.20;99.90;;;;;;5050763;28;20044;-63
2020/12/22 05:07:07;;;;;;;31.65;19.88;;;12.30;99.90;;;;;;5048386;28;20053;-62
2020/12/22 05:09:35;;;;;;;30.60;20.75;;;12.20;99.90;;;;;;5051674;28;20389;-64
2020/12/22 05:12:02;;;;;;;33.42;19.88;;;12.20;99.90;;;;;;5034944;28;20060;-63
2020/12/22 05:14:30;;;;;;;30.85;22.02;;;12.20;99.90;;;;;;5051279;28;20084;-64
2020/12/22 05:16:58;;;;;;;27.92;18.95;;;12.20;99.90;;;;;;5051310;28;20049;-63
2020/12/22 05:19:34;;;;;;;43.78;26.95;;;12.20;99.90;;;;;;5050020;28;20095;-64
2020/12/22 05:22:02;;;;;;;;;;;12.20;99.90;;;;;;5051942;28;20052;-63
2020/12/22 05:24:32;;;;;;;34.00;20.83;;;12.20;99.90;;;;;;5054361;28;19964;-63
2020/12/22 05:27:00;;;;;;;33.22;21.88;;;12.20;99.90;;;;;;5042003;28;20047;-64
2020/12/22 05:29:28;;;;;;;37.17;23.40;;;12.10;99.90;;;;;;5054706;28;20459;-62
2020/12/22 05:31:56;;;;;;;35.45;22.92;;;12.10;99.90;;;;;;5054740;28;20045;-63
2020/12/22 05:34:27;;;;;;;32.40;20.95;;;12.10;99.90;;;;;;5054325;28;20079;-63
2020/12/22 05:37:01;;;;;;;38.17;23.70;;;12.00;99.90;;;;;;5056248;28;20053;-63
2020/12/22 05:39:28;;;;;;;36.80;24.92;;;12.00;99.90;;;;;;5047941;28;20140;-63
2020/12/22 05:41:56;;;;;;;38.80;25.17;;;12.00;99.90;;;;;;5039874;28;20143;-64
2020/12/22 05:44:26;;;;;;;35.20;24.35;;;12.00;99.90;;;;;;5046886;28;20064;-62
2020/12/22 05:46:59;;;;;;;37.08;23.98;;;12.00;99.90;;;;;;5055890;28;20052;-64
2020/12/22 05:49:27;;;;;;;40.38;24.02;;;12.00;99.90;;;;;;5055515;28;20553;-64
2020/12/22 05:51:55;;;;;;;36.53;24.75;;;12.00;99.90;;;;;;5094200;28;20536;-64
2020/12/22 05:54:26;;;;;;;104.85;65.97;;;12.00;99.90;;;;;;5095773;28;20059;-63
2020/12/22 05:57:05;;;;;;;124.80;70.78;;;12.00;99.90;;;;;;5078654;28;20059;-64
2020/12/22 05:59:33;;;;;;;40.80;25.90;;;12.10;99.90;;;;;;5095372;28;20060;-64
2020/12/22 06:02:01;;;;;;;40.95;24.25;;;12.10;99.90;;;;;;5094646;28;20051;-63
2020/12/22 06:04:30;;;;;;;35.85;25.50;;;12.10;99.90;;;;;;5095437;28;20063;-63
2020/12/22 06:06:58;;;;;;;39.45;23.58;;;12.10;99.90;;;;;;5077790;28;20044;-65
2020/12/22 06:09:26;;;;;;;34.28;24.33;;;12.20;99.90;;;;;;5094847;28;20040;-63
2020/12/22 06:12:00;;;;;;;36.55;22.95;;;12.20;99.90;;;;;;5095371;28;20054;-64
2020/12/22 06:14:31;;;;;;;33.55;21.13;;;12.20;99.90;;;;;;5094145;28;20062;-64
2020/12/22 06:17:07;;;;;;;49.03;28.88;;;12.10;99.90;;;;;;5077393;28;20062;-63
2020/12/22 06:19:36;;;;;;;42.13;26.52;;;12.10;99.90;;;;;;5094702;28;20127;-64
2020/12/22 06:22:04;;;;;;;41.38;25.98;;;12.00;99.90;;;;;;5095601;28;20040;-63
2020/12/22 06:24:33;;;;;;;40.50;25.52;;;12.10;99.90;;;;;;5095216;28;20043;-64
2020/12/22 06:27:06;;;;;;;34.85;22.63;;;12.00;99.90;;;;;;5095350;28;20051;-63
2020/12/22 06:29:40;;;;;;;35.95;22.45;;;12.10;99.90;;;;;;5076931;28;20396;-63
2020/12/22 06:32:22;;;;;;;33.80;23.38;;;12.10;99.90;;;;;;5095544;28;20118;-64
2020/12/22 06:34:52;;;;;;;39.58;24.58;;;12.10;99.90;;;;;;5087567;28;20048;-63
2020/12/22 06:37:43;;;;;;;37.17;25.00;;;12.10;99.90;;;;;;5090763;28;20123;-64
2020/12/22 06:40:11;;;;;;;35.92;23.65;;;12.10;99.90;;;;;;5079197;28;20040;-63
2020/12/22 06:42:44;;;;;;;36.55;25.05;;;12.10;99.90;;;;;;5095475;28;20048;-64
2020/12/22 06:45:35;;;;;;;33.28;22.90;;;12.20;99.90;;;;;;5095320;28;20036;-63
2020/12/22 06:48:03;;;;;;;46.75;26.92;;;12.20;99.90;;;;;;5106162;28;20046;-63
2020/12/22 06:50:39;;;;;;;46.75;27.13;;;12.30;99.90;;;;;;5091404;28;20060;-64
2020/12/22 06:53:29;;;;;;;42.83;28.50;;;12.40;99.90;;;;;;5095007;28;20040;-64
2020/12/22 06:55:57;;;;;;;39.63;26.42;;;12.50;99.90;;;;;;5079106;28;20070;-64
2020/12/22 06:58:38;;;;;;;42.58;28.58;;;12.60;99.90;;;;;;5094920;28;20182;-63
2020/12/22 07:01:24;;;;;;;36.10;23.65;;;12.70;99.90;;;;;;5093913;28;20490;-63
2020/12/22 07:03:53;;;;;;;35.83;25.33;;;12.70;99.90;;;;;;5085622;28;20079;-64
2020/12/22 07:06:50;;;;;;;38.08;25.85;;;12.70;99.90;;;;;;5093783;28;20072;-63
2020/12/22 07:09:19;;;;;;;;;;;12.80;99.90;;;;;;5088757;28;20045;-64
2020/12/22 07:11:48;;;;;;;37.38;24.50;;;12.80;99.90;;;;;;5074837;28;20383;-63
2020/12/22 07:14:18;;;;;;;35.45;22.55;;;12.80;99.90;;;;;;5073436;28;20051;-64
2020/12/22 07:16:57;;;;;;;34.63;22.58;;;12.80;99.90;;;;;;5076311;28;20040;-64
2020/12/22 07:19:29;;;;;;;33.05;21.55;;;12.90;99.90;;;;;;5076464;28;20036;-63
2020/12/22 07:21:59;;;;;;;30.15;21.80;;;12.90;99.90;;;;;;5094030;28;20062;-64
2020/12/22 07:24:28;;;;;;;30.02;19.58;;;13.00;99.90;;;;;;5079464;28;20040;-64
2020/12/22 07:26:56;;;;;;;31.92;20.45;;;13.10;99.90;;;;;;5084751;28;20044;-64
2020/12/22 07:29:24;;;;;;;35.63;24.08;;;13.20;99.90;;;;;;5093479;28;20122;-64
2020/12/22 07:31:52;;;;;;;37.08;24.40;;;13.20;99.90;;;;;;5089577;28;20095;-64
2020/12/22 07:34:21;;;;;;;34.63;22.55;;;13.30;99.90;;;;;;5074761;28;20175;-64
2020/12/22 07:36:49;;;;;;;37.65;24.35;;;13.30;99.90;;;;;;5075357;28;20052;-65
2020/12/22 07:39:18;;;;;;;36.38;23.40;;;13.30;99.90;;;;;;5094004;28;20113;-64
2020/12/22 07:41:46;;;;;;;32.80;23.20;;;13.40;99.90;;;;;;5080500;28;20090;-64
2020/12/22 07:44:22;;;;;;;39.95;23.42;;;13.50;99.90;;;;;;5074057;28;20079;-65
2020/12/22 07:46:53;;;;;;;33.30;23.17;;;13.60;99.90;;;;;;5073734;28;20044;-65
2020/12/22 07:49:22;;;;;;;32.42;21.15;;;13.70;99.90;;;;;;5073715;28;20082;-64
2020/12/22 07:51:49;;;;;;;33.80;22.35;;;13.90;99.90;;;;;;5056790;28;20064;-64
2020/12/22 07:54:17;;;;;;;33.53;22.92;;;14.00;99.90;;;;;;5052621;28;20048;-65
2020/12/22 07:56:46;;;;;;;40.85;27.30;;;14.10;99.90;;;;;;5061058;28;20395;-66
2020/12/22 07:59:15;;;;;;;43.05;26.13;;;14.20;99.90;;;;;;5053044;28;20135;-61
2020/12/22 08:01:48;;;;;;;39.25;25.92;;;14.30;99.90;;;;;;5052359;28;20044;-62
2020/12/22 08:04:24;;;;;;;36.03;25.08;;;14.40;99.90;;;;;;5060051;28;20041;-64
2020/12/22 08:07:00;;;;;;;;;;;14.50;99.90;;;;;;5048363;28;20055;-64
2020/12/22 08:09:37;;;;;;;37.47;24.88;;;14.50;99.90;;;;;;5059593;28;20050;-63
2020/12/22 08:12:07;;;;;;;37.45;24.40;;;14.60;99.90;;;;;;5051955;28;20408;-63
2020/12/22 08:14:45;;;;;;;34.28;22.95;;;14.70;99.90;;;;;;5052036;28;20075;-63
2020/12/22 08:17:21;;;;;;;38.83;25.55;;;14.70;99.90;;;;;;5053031;28;20045;-62
2020/12/22 08:19:49;;;;;;;43.60;24.35;;;14.90;99.90;;;;;;5072314;28;20524;-63
2020/12/22 08:22:18;;;;;;;37.25;24.77;;;14.90;99.90;;;;;;5054756;28;20131;-63
2020/12/22 08:24:53;;;;;;;31.05;21.42;;;14.90;99.90;;;;;;5066852;28;20064;-63
2020/12/22 08:27:26;;;;;;;32.38;20.50;;;15.00;99.90;;;;;;5044072;28;20408;-62
2020/12/22 08:29:57;;;;;;;25.13;15.73;;;15.00;99.90;;;;;;5051533;28;20059;-62
2020/12/22 08:32:27;;;;;;;28.30;15.15;;;15.10;99.90;;;;;;5056472;28;20467;-63
2020/12/22 08:34:55;;;;;;;22.48;14.20;;;15.20;99.90;;;;;;5047478;28;20407;-62
2020/12/22 08:37:26;;;;;;;21.10;13.40;;;15.30;99.90;;;;;;5051688;28;20041;-62
2020/12/22 08:39:58;;;;;;;17.75;11.65;;;15.40;99.90;;;;;;5071094;28;20067;-62
2020/12/22 08:42:25;;;;;;;20.38;12.32;;;15.50;99.90;;;;;;5070644;28;20076;-63
2020/12/22 08:44:56;;;;;;;17.70;10.65;;;15.60;99.90;;;;;;5067488;28;20404;-62
2020/12/22 08:47:27;;;;;;;18.85;12.43;;;15.70;99.90;;;;;;5072079;28;20085;-63
2020/12/22 08:50:07;;;;;;;19.10;9.88;;;15.80;99.90;;;;;;5056921;28;20562;-63
2020/12/22 08:52:35;;;;;;;11.68;7.97;;;15.90;99.90;;;;;;5083189;28;20199;-62
2020/12/22 08:55:04;;;;;;;12.25;8.38;;;15.90;99.90;;;;;;5091466;28;20490;-62
2020/12/22 08:57:32;;;;;;;13.15;6.97;;;16.00;99.90;;;;;;5087080;28;20055;-63
2020/12/22 09:00:11;;;;;;;9.82;6.88;;;16.00;99.90;;;;;;5090532;28;20047;-63
2020/12/22 09:02:38;;;;;;;11.98;6.50;;;16.00;99.90;;;;;;5065544;28;20507;-63
2020/12/22 09:05:16;;;;;;;11.48;8.23;;;16.10;99.90;;;;;;5087765;28;20051;-62
2020/12/22 09:08:07;;;;;;;14.05;6.75;;;16.10;99.90;;;;;;5085666;28;20055;-63
2020/12/22 09:10:47;;;;;;;17.95;8.65;;;16.20;99.90;;;;;;5076954;28;20040;-63
2020/12/22 09:13:16;;;;;;;13.70;8.85;;;16.20;99.90;;;;;;5091171;28;20114;-64
2020/12/22 09:15:54;;;;;;;12.85;8.52;;;16.20;99.90;;;;;;5091285;28;20056;-64
2020/12/22 09:18:22;;;;;;;15.63;9.50;;;16.30;99.90;;;;;;5085109;28;20044;-64
2020/12/22 09:21:06;;;;;;;12.38;7.70;;;16.40;99.90;;;;;;5092959;28;20079;-63
2020/12/22 09:23:44;;;;;;;20.75;10.25;;;16.60;99.90;;;;;;5088331;28;20139;-65
2020/12/22 09:26:16;;;;;;;20.00;13.77;;;16.70;99.90;;;;;;5071130;28;20415;-63
2020/12/22 09:28:47;;;;;;;14.55;8.13;;;16.80;99.90;;;;;;5064180;28;20423;-63
2020/12/22 09:31:25;;;;;;;11.27;7.35;;;16.80;99.90;;;;;;5090641;28;20044;-65
2020/12/22 09:33:59;;;;;;;14.98;9.18;;;16.90;99.90;;;;;;5092324;28;20051;-63
2020/12/22 09:36:27;;;;;;;14.68;10.32;;;16.90;99.90;;;;;;5074152;28;20048;-62
2020/12/22 09:39:07;;;;;;;13.30;9.07;;;16.80;99.90;;;;;;5075540;28;20438;-63
2020/12/22 09:41:42;;;;;;;15.07;9.77;;;16.80;99.90;;;;;;5087708;28;20049;-63
2020/12/22 09:44:13;;;;;;;17.80;11.55;;;16.80;99.90;;;;;;5087253;28;20135;-65
2020/12/22 09:46:41;;;;;;;18.40;12.45;;;16.80;99.90;;;;;;5073600;28;20037;-63
2020/12/22 09:49:09;;;;;;;15.05;9.18;;;16.90;99.90;;;;;;5091160;28;20056;-64
2020/12/22 09:51:37;;;;;;;16.90;9.75;;;17.00;99.90;;;;;;5081612;28;20408;-62
2020/12/22 09:54:13;;;;;;;15.07;9.10;;;17.00;99.90;;;;;;5084856;28;20041;-63
2020/12/22 09:56:44;;;;;;;12.90;8.77;;;17.20;99.90;;;;;;5071331;28;20060;-63
2020/12/22 09:59:12;;;;;;;14.48;8.40;;;17.10;99.90;;;;;;5073546;28;20507;-63
2020/12/22 10:01:40;;;;;;;18.58;10.60;;;17.00;99.90;;;;;;5078232;28;20459;-65
2020/12/22 10:04:11;;;;;;;23.17;10.95;;;16.90;99.90;;;;;;5069955;28;20072;-64
2020/12/22 10:06:38;;;;;;;11.70;8.30;;;16.90;99.90;;;;;;5087586;28;20044;-64
2020/12/22 10:09:06;;;;;;;12.70;7.82;;;16.90;99.90;;;;;;5091872;28;20040;-65
2020/12/22 10:11:36;;;;;;;15.25;8.27;;;16.70;99.90;;;;;;5076008;28;20079;-64
2020/12/22 10:14:06;;;;;;;10.57;6.10;;;16.80;99.90;;;;;;5074119;28;20144;-64
2020/12/22 10:16:37;;;;;;;12.77;6.45;;;16.90;99.90;;;;;;5074034;28;20063;-64
2020/12/22 10:19:07;;;;;;;14.93;6.10;;;16.80;99.90;;;;;;5080457;28;20059;-64
2020/12/22 10:21:40;;;;;;;9.50;6.15;;;16.80;99.90;;;;;;5077933;28;20445;-64
2020/12/22 10:24:11;;;;;;;12.18;6.70;;;16.80;99.90;;;;;;5078337;28;20102;-64
2020/12/22 10:26:41;;;;;;;14.40;8.98;;;16.90;99.90;;;;;;5085753;28;20079;-63
2020/12/22 10:29:12;;;;;;;13.10;7.20;;;17.00;99.90;;;;;;5089445;28;20040;-64
2020/12/22 10:31:40;;;;;;;8.73;6.15;;;17.00;99.90;;;;;;5074025;28;20511;-64
2020/12/22 10:34:08;;;;;;;12.60;7.30;;;17.00;99.90;;;;;;5088234;28;20414;-64
2020/12/22 10:36:38;;;;;;;12.82;8.88;;;17.00;99.90;;;;;;5095560;28;20410;-64
2020/12/22 10:39:09;;;;;;;15.65;9.82;;;17.20;99.90;;;;;;5094777;28;20052;-64
2020/12/22 10:41:39;;;;;;;12.13;8.13;;;17.30;99.90;;;;;;5078414;28;20087;-63
2020/12/22 10:44:06;;;;;;;11.88;6.80;;;17.30;99.90;;;;;;5074192;28;20044;-64
2020/12/22 10:46:34;;;;;;;12.35;7.05;;;17.30;99.90;;;;;;5073850;28;20052;-64
2020/12/22 10:49:05;;;;;;;21.58;10.82;;;17.30;99.90;;;;;;5093913;28;20046;-64
2020/12/22 10:51:35;;;;;;;16.05;10.25;;;17.40;99.90;;;;;;5093904;28;20074;-65
2020/12/22 10:54:03;;;;;;;24.13;15.15;;;17.50;99.90;;;;;;5099627;28;20048;-63
2020/12/22 10:56:30;;;;;;;19.65;12.88;;;17.50;99.90;;;;;;5075225;28;20588;-64
2020/12/22 10:59:00;;;;;;;15.90;10.63;;;17.60;99.90;;;;;;5074733;28;20415;-62
2020/12/22 11:01:28;;;;;;;25.15;13.85;;;17.70;99.90;;;;;;5081149;28;20051;-64
2020/12/22 11:03:55;;;;;;;20.88;14.25;;;17.80;99.90;;;;;;5094432;28;20048;-63
2020/12/22 11:09:28;;;;;;;22.10;12.02;;;17.80;99.90;;;;;;5018365;28;20054;-65
2020/12/22 11:11:58;;;;;;;18.88;13.90;;;18.00;99.90;;;;;;5031290;28;20073;-63
2020/12/22 11:14:25;;;;;;;24.05;14.57;;;18.10;99.90;;;;;;5033034;28;20047;-64
2020/12/22 11:16:53;;;;;;;21.05;13.35;;;18.10;99.90;;;;;;5093022;28;20052;-63
2020/12/22 11:19:22;;;;;;;25.33;14.93;;;18.20;99.90;;;;;;5072651;28;20048;-63
2020/12/22 11:21:49;;;;;;;20.88;13.82;;;18.30;99.90;;;;;;5072414;28;20052;-64
2020/12/22 11:24:17;;;;;;;18.73;11.45;;;18.30;99.90;;;;;;5090993;28;20406;-64
2020/12/22 11:26:45;;;;;;;18.92;11.95;;;18.40;99.90;;;;;;5070800;28;20056;-64
2020/12/22 11:29:16;;;;;;;19.08;12.05;;;18.40;99.90;;;;;;5074115;28;20090;-64
2020/12/22 11:31:47;;;;;;;18.45;12.00;;;18.60;99.90;;;;;;5093204;28;20074;-64
2020/12/22 11:34:18;;;;;;;16.70;10.75;;;18.60;99.90;;;;;;5109904;28;20051;-64
2020/12/22 11:36:53;;;;;;;18.77;9.88;;;18.60;99.90;;;;;;5076610;28;20055;-63
2020/12/22 11:39:22;;;;;;;13.73;8.50;;;18.60;99.90;;;;;;5077848;28;20055;-64
2020/12/22 11:41:49;;;;;;;16.80;8.82;;;18.50;99.90;;;;;;5093029;28;20083;-64
2020/12/22 11:44:17;;;;;;;10.35;6.57;;;18.40;99.90;;;;;;5093567;28;20052;-64
2020/12/22 11:46:46;;;;;;;12.80;8.18;;;18.50;99.90;;;;;;5061151;28;20067;-64
2020/12/22 11:49:14;;;;;;;13.75;7.60;;;18.50;99.90;;;;;;5073685;28;20056;-64
2020/12/22 11:51:42;;;;;;;13.50;8.50;;;18.60;99.90;;;;;;5091022;28;20055;-64
2020/12/22 11:54:09;;;;;;;20.23;14.77;;;18.60;99.90;;;;;;5075585;28;20047;-64
2020/12/22 11:56:36;;;;;;;14.32;9.27;;;18.70;99.90;;;;;;5093967;28;20086;-64
2020/12/22 11:59:04;;;;;;;15.80;9.32;;;18.70;99.90;;;;;;5093099;28;20067;-62
2020/12/22 12:01:32;;;;;;;13.48;8.93;;;18.80;99.90;;;;;;5093826;28;20044;-64
2020/12/22 12:03:59;;;;;;;9.88;7.20;;;18.80;99.90;;;;;;5075794;28;20120;-66
2020/12/22 12:06:27;;;;;;;14.50;7.95;;;18.90;99.90;;;;;;5076816;28;20050;-64
2020/12/22 12:08:55;;;;;;;13.30;7.53;;;18.90;99.90;;;;;;5075485;28;20058;-63
2020/12/22 12:11:22;;;;;;;16.42;9.63;;;19.10;99.90;;;;;;5093430;28;20048;-63
2020/12/22 12:13:50;;;;;;;8.50;6.50;;;19.30;99.90;;;;;;5093661;28;20115;-63
2020/12/22 12:16:18;;;;;;;13.82;8.23;;;19.30;99.90;;;;;;5093364;28;20466;-65
2020/12/22 12:18:46;;;;;;;13.88;8.80;;;19.40;99.90;;;;;;5093145;28;20503;-64
2020/12/22 12:21:17;;;;;;;15.18;8.20;;;19.30;99.90;;;;;;5093246;28;20191;-63
2020/12/22 12:23:45;;;;;;;19.40;8.85;;;19.20;99.90;;;;;;5075536;28;20101;-64
2020/12/22 12:26:13;;;;;;;13.98;8.07;;;19.00;99.90;;;;;;5093053;28;20113;-64
2020/12/22 12:28:41;;;;;;;14.70;9.52;;;18.50;99.90;;;;;;5074975;28;20043;-63
2020/12/22 12:31:14;;;;;;;13.63;7.70;;;18.30;99.90;;;;;;5093006;28;20539;-64
2020/12/22 12:33:42;;;;;;;10.55;7.57;;;18.10;99.90;;;;;;5091146;28;20047;-64
2020/12/22 12:36:13;;;;;;;11.60;7.05;;;18.00;99.90;;;;;;5093080;28;20040;-64
2020/12/22 12:38:41;;;;;;;11.10;7.75;;;17.80;99.90;;;;;;5092678;28;20487;-64
2020/12/22 12:41:12;;;;;;;12.25;8.07;;;17.70;99.90;;;;;;5091620;28;20046;-64
2020/12/22 12:43:41;;;;;;;27.63;9.07;;;17.70;99.90;;;;;;5091876;28;20503;-64
2020/12/22 12:46:09;;;;;;;38.28;10.93;;;17.70;99.90;;;;;;5073692;28;20172;-64